createdAt,value
2019-04-16T00:01:45.317Z,13.17
2019-04-16T00:04:27.109Z,14.70
2019-04-16T00:07:21.284Z,13.77
2019-04-16T00:09:59.873Z,14.57
2019-04-16T00:12:48.637Z,13.53
2019-04-16T00:15:16.686Z,13.77
2019-04-16T00:17:47.304Z,13.13
2019-04-16T00:20:14.469Z,15.20
2019-04-16T00:22:49.597Z,15.20
2019-04-16T00:25:17.772Z,13.93
2019-04-16T00:27:45.715Z,13.60
2019-04-16T00:30:15.518Z,14.30
2019-04-16T00:32:43.660Z,14.53
2019-04-16T00:35:15.438Z,14.40
2019-04-16T00:37:41.475Z,14.50
2019-04-16T00:40:09.578Z,13.73
2019-04-16T00:42:38.046Z,14.90
2019-04-16T00:45:09.576Z,14.90
2019-04-16T00:47:37.619Z,15.40
2019-04-16T00:50:05.769Z,14.17
2019-04-16T00:52:36.644Z,14.30
2019-04-16T00:55:03.754Z,14.87
2019-04-16T00:57:31.646Z,14.77
2019-04-16T00:59:59.831Z,15.47
2019-04-16T01:02:27.860Z,14.73
2019-04-16T01:04:55.866Z,15.10
2019-04-16T01:07:25.053Z,14.20
2019-04-16T01:09:53.011Z,14.90
2019-04-16T01:12:21.480Z,17.10
2019-04-16T01:14:49.656Z,14.67
2019-04-16T01:17:18.471Z,14.70
2019-04-16T01:19:46.372Z,15.10
2019-04-16T01:22:16.015Z,14.20
2019-04-16T01:24:44.228Z,16.53
2019-04-16T01:27:12.146Z,15.27
2019-04-16T01:29:40.160Z,15.77
2019-04-16T01:32:36.638Z,16.00
2019-04-16T01:35:27.246Z,14.83
2019-04-16T01:38:13.028Z,16.30
2019-04-16T01:41:00.483Z,16.23
2019-04-16T01:43:28.632Z,15.60
2019-04-16T01:46:00.781Z,14.53
2019-04-16T01:48:26.620Z,14.97
2019-04-16T01:50:54.807Z,15.53
2019-04-16T01:53:24.214Z,15.90
2019-04-16T01:55:56.741Z,15.73
2019-04-16T01:58:22.399Z,15.60
2019-04-16T02:00:50.590Z,16.80
2019-04-16T02:03:18.659Z,16.20
2019-04-16T02:05:46.739Z,17.50
2019-04-16T02:08:14.718Z,16.33
2019-04-16T02:10:42.893Z,15.90
2019-04-16T02:13:14.578Z,15.33
2019-04-16T02:15:40.774Z,17.00
2019-04-16T02:18:08.765Z,16.77
2019-04-16T02:20:39.245Z,16.23
2019-04-16T02:23:06.352Z,16.70
2019-04-16T02:25:34.267Z,17.27
2019-04-16T02:28:02.581Z,17.43
2019-04-16T02:30:38.127Z,16.10
2019-04-16T02:33:04.474Z,16.50
2019-04-16T02:35:32.704Z,16.00
2019-04-16T02:38:00.742Z,17.10
2019-04-16T02:40:28.940Z,17.10
2019-04-16T02:43:04.214Z,15.80
2019-04-16T02:45:27.071Z,17.80
2019-04-16T02:47:55.383Z,16.93
2019-04-16T02:50:33.833Z,17.30
2019-04-16T02:53:09.045Z,17.60
2019-04-16T02:56:05.868Z,16.93
2019-04-16T02:58:44.165Z,17.40
2019-04-16T03:01:34.315Z,16.50
2019-04-16T03:04:08.066Z,18.10
2019-04-16T03:06:36.122Z,16.30
2019-04-16T03:09:09.128Z,16.77
2019-04-16T03:11:36.458Z,16.77
2019-04-16T03:14:04.639Z,16.20
2019-04-16T03:16:57.591Z,15.97
2019-04-16T03:19:30.902Z,16.93
2019-04-16T03:22:02.164Z,17.97
2019-04-16T03:24:29.483Z,17.90
2019-04-16T03:26:57.806Z,17.13
2019-04-16T03:29:27.453Z,16.07
2019-04-16T03:31:58.331Z,17.87
2019-04-16T03:34:25.844Z,18.60
2019-04-16T03:36:53.819Z,18.37
2019-04-16T03:39:22.111Z,17.03
2019-04-16T03:41:50.346Z,17.87
2019-04-16T03:44:18.383Z,18.47
2019-04-16T03:46:47.677Z,18.27
2019-04-16T03:49:16.235Z,17.50
2019-04-16T03:51:44.239Z,18.17
2019-04-16T03:54:12.281Z,17.67
2019-04-16T03:56:40.363Z,16.63
2019-04-16T03:59:11.848Z,16.57
2019-04-16T04:01:39.149Z,17.67
2019-04-16T04:04:07.239Z,18.00
2019-04-16T04:06:36.554Z,16.80
2019-04-16T04:09:06.383Z,18.10
2019-04-16T04:11:34.941Z,17.47
2019-04-16T04:14:03.265Z,17.80
2019-04-16T04:16:33.425Z,17.93
2019-04-16T04:19:01.540Z,18.40
2019-04-16T04:21:29.597Z,17.63
2019-04-16T04:24:00.703Z,16.77
2019-04-16T04:26:27.647Z,18.03
2019-04-16T04:28:55.707Z,17.20
2019-04-16T04:31:23.811Z,18.37
2019-04-16T04:33:51.977Z,18.40
2019-04-16T04:36:22.977Z,18.50
2019-04-16T04:38:49.987Z,17.60
2019-04-16T04:41:20.170Z,18.83
2019-04-16T04:43:48.053Z,18.83
2019-04-16T04:46:16.131Z,20.20
2019-04-16T04:48:44.407Z,17.87
2019-04-16T04:51:12.811Z,18.57
2019-04-16T04:53:41.440Z,18.87
2019-04-16T04:56:09.641Z,19.23
2019-04-16T04:58:37.713Z,18.50
2019-04-16T05:01:06.195Z,20.00
2019-04-16T05:04:02.003Z,18.17
2019-04-16T05:06:32.094Z,18.30
2019-04-16T05:09:00.408Z,18.43
2019-04-16T05:11:29.682Z,18.17
2019-04-16T05:13:57.936Z,18.30
2019-04-16T05:16:26.066Z,19.10
2019-04-16T05:18:54.111Z,17.90
2019-04-16T05:21:22.215Z,17.60
2019-04-16T05:23:50.193Z,19.17
2019-04-16T05:26:18.186Z,18.40
2019-04-16T05:28:46.216Z,19.03
2019-04-16T05:31:14.384Z,19.37
2019-04-16T05:33:42.706Z,18.53
2019-04-16T05:36:14.219Z,18.30
2019-04-16T05:38:41.084Z,18.90
2019-04-16T05:41:13.502Z,18.67
2019-04-16T05:43:39.254Z,18.80
2019-04-16T05:46:08.858Z,19.20
2019-04-16T05:48:46.980Z,18.90
2019-04-16T05:51:28.519Z,17.70
2019-04-16T05:53:59.802Z,17.73
2019-04-16T05:56:36.542Z,17.67
2019-04-16T05:59:04.631Z,18.33
2019-04-16T06:01:45.465Z,17.47
2019-04-16T06:04:12.926Z,17.67
2019-04-16T06:06:41.267Z,17.27
2019-04-16T06:09:12.260Z,17.50
2019-04-16T06:11:39.833Z,16.83
2019-04-16T06:14:39.174Z,16.90
2019-04-16T06:17:25.887Z,15.87
2019-04-16T06:20:20.758Z,17.00
2019-04-16T06:23:08.801Z,17.83
2019-04-16T06:25:47.846Z,17.77
2019-04-16T06:28:43.774Z,17.53
2019-04-16T06:31:31.160Z,18.73
2019-04-16T06:34:17.042Z,17.13
2019-04-16T06:37:02.520Z,19.13
2019-04-16T06:39:52.441Z,17.73
2019-04-16T06:42:33.738Z,19.17
2019-04-16T06:45:06.146Z,18.93
2019-04-16T06:47:59.562Z,17.90
2019-04-16T06:50:49.980Z,16.70
2019-04-16T06:53:40.454Z,16.50
2019-04-16T06:56:21.100Z,19.37
2019-04-16T06:58:57.163Z,17.93
2019-04-16T07:01:56.514Z,16.50
2019-04-16T07:04:38.222Z,16.90
2019-04-16T07:07:15.487Z,17.00
2019-04-16T07:09:57.640Z,18.47
2019-04-16T07:12:29.632Z,19.20
2019-04-16T07:14:57.849Z,17.50
2019-04-16T07:17:29.430Z,17.27
2019-04-16T07:19:57.115Z,18.20
2019-04-16T07:22:25.373Z,16.80
2019-04-16T07:24:57.742Z,15.80
2019-04-16T07:27:29.069Z,16.87
2019-04-16T07:30:09.055Z,18.73
2019-04-16T07:32:55.451Z,16.47
2019-04-16T07:35:35.933Z,18.43
2019-04-16T07:38:35.147Z,19.07
2019-04-16T07:41:17.123Z,17.47
2019-04-16T07:44:10.245Z,17.27
2019-04-16T07:47:06.129Z,15.97
2019-04-16T07:49:55.920Z,18.60
2019-04-16T07:52:48.776Z,18.60
2019-04-16T07:55:36.587Z,17.30
2019-04-16T07:58:04.832Z,18.60
2019-04-16T08:00:33.031Z,17.07
2019-04-16T08:03:01.111Z,18.30
2019-04-16T08:05:29.443Z,19.23
2019-04-16T08:07:57.920Z,19.33
2019-04-16T08:10:26.228Z,18.13
2019-04-16T08:13:06.395Z,15.80
2019-04-16T08:15:34.368Z,15.67
2019-04-16T08:18:02.355Z,17.43
2019-04-16T08:20:31.043Z,16.97
2019-04-16T08:23:02.023Z,17.40
2019-04-16T08:25:34.058Z,16.53
2019-04-16T08:28:01.290Z,14.80
2019-04-16T08:30:34.581Z,14.60
2019-04-16T08:33:00.208Z,17.23
2019-04-16T08:35:28.588Z,16.00
2019-04-16T08:37:58.554Z,15.60
2019-04-16T08:40:26.766Z,15.47
2019-04-16T08:42:57.249Z,16.27
2019-04-16T08:45:25.041Z,16.17
2019-04-16T08:47:52.944Z,14.30
2019-04-16T08:50:25.812Z,16.43
2019-04-16T08:52:50.704Z,15.70
2019-04-16T08:55:20.533Z,16.80
2019-04-16T08:57:48.292Z,14.57
2019-04-16T09:00:16.476Z,15.97
2019-04-16T09:02:44.440Z,14.20
2019-04-16T09:05:12.630Z,16.60
2019-04-16T09:07:40.604Z,15.63
2019-04-16T09:10:18.262Z,16.57
2019-04-16T09:12:46.103Z,18.07
2019-04-16T09:15:17.299Z,17.53
2019-04-16T09:17:48.557Z,15.90
2019-04-16T09:20:24.083Z,18.63
2019-04-16T09:22:53.645Z,16.70
2019-04-16T09:25:37.948Z,16.67
2019-04-16T09:28:25.913Z,19.60
2019-04-16T09:31:06.558Z,16.13
2019-04-16T09:33:46.697Z,17.63
2019-04-16T09:36:32.554Z,15.57
2019-04-16T09:39:15.932Z,15.57
2019-04-16T09:41:46.827Z,16.10
2019-04-16T09:44:15.041Z,13.30
2019-04-16T09:46:51.943Z,16.73
2019-04-16T09:49:12.829Z,17.60
2019-04-16T09:51:40.882Z,16.67
2019-04-16T09:54:12.675Z,15.63
2019-04-16T09:56:38.971Z,14.47
2019-04-16T09:59:17.113Z,16.63
2019-04-16T10:01:47.880Z,14.47
2019-04-16T10:04:17.873Z,19.23
2019-04-16T10:06:45.906Z,16.80
2019-04-16T10:09:17.038Z,18.87
2019-04-16T10:11:43.709Z,18.30
2019-04-16T10:14:11.877Z,18.40
2019-04-16T10:16:40.140Z,18.80
2019-04-16T10:19:09.106Z,18.33
2019-04-16T10:21:37.429Z,19.13
2019-04-16T10:24:23.273Z,16.43
2019-04-16T10:26:56.936Z,16.53
2019-04-16T10:29:24.276Z,18.30
2019-04-16T10:31:52.980Z,18.20
2019-04-16T10:34:21.021Z,18.83
2019-04-16T10:36:49.043Z,15.87
2019-04-16T10:39:25.307Z,15.93
2019-04-16T10:41:58.483Z,16.63
2019-04-16T10:44:35.931Z,17.33
2019-04-16T10:47:22.565Z,17.00
2019-04-16T10:50:05.828Z,17.90
2019-04-16T10:52:55.428Z,16.00
2019-04-16T10:55:58.441Z,16.37
2019-04-16T10:58:51.504Z,18.70
2019-04-16T11:01:34.786Z,19.77
2019-04-16T11:04:15.589Z,16.20
2019-04-16T11:06:45.922Z,14.03
2019-04-16T11:09:13.997Z,16.77
2019-04-16T11:11:42.057Z,17.97
2019-04-16T11:14:11.583Z,18.63
2019-04-16T11:16:41.179Z,18.30
2019-04-16T11:19:09.393Z,14.50
2019-04-16T11:21:37.415Z,17.67
2019-04-16T11:24:05.657Z,16.63
2019-04-16T11:26:34.147Z,18.60
2019-04-16T11:29:02.247Z,17.63
2019-04-16T11:31:30.592Z,14.73
2019-04-16T11:33:59.114Z,17.77
2019-04-16T11:36:30.568Z,13.00
2019-04-16T11:38:57.222Z,16.10
2019-04-16T11:41:25.183Z,14.27
2019-04-16T11:43:53.221Z,14.63
2019-04-16T11:46:21.614Z,14.60
2019-04-16T11:48:50.350Z,15.83
2019-04-16T11:51:18.699Z,14.53
2019-04-16T11:53:47.381Z,13.40
2019-04-16T11:56:15.541Z,14.30
2019-04-16T11:58:45.343Z,13.83
2019-04-16T12:01:28.145Z,12.47
2019-04-16T12:04:00.160Z,13.70
2019-04-16T12:07:05.570Z,14.70
2019-04-16T12:09:51.979Z,13.47
2019-04-16T12:12:42.178Z,14.60
2019-04-16T12:15:28.240Z,12.13
2019-04-16T12:18:06.428Z,12.97
2019-04-16T12:20:46.813Z,11.80
2019-04-16T12:23:35.804Z,11.90
2019-04-16T12:26:29.647Z,12.30
2019-04-16T12:29:03.487Z,15.13
2019-04-16T12:32:05.756Z,13.27
2019-04-16T12:34:42.141Z,12.80
2019-04-16T12:37:23.872Z,11.80
2019-04-16T12:40:03.830Z,11.40
2019-04-16T12:42:42.264Z,12.03
2019-04-16T12:45:34.326Z,12.90
2019-04-16T12:48:21.625Z,13.53
2019-04-16T12:51:02.599Z,12.07
2019-04-16T12:54:04.799Z,12.70
2019-04-16T12:57:06.813Z,11.60
2019-04-16T12:59:56.788Z,10.67
2019-04-16T13:02:46.883Z,9.97
2019-04-16T13:05:44.426Z,10.23
2019-04-16T13:08:32.281Z,12.10
2019-04-16T13:11:31.988Z,11.30
2019-04-16T13:14:29.635Z,11.80
2019-04-16T13:17:04.505Z,12.50
2019-04-16T13:19:42.230Z,12.60
2019-04-16T13:22:11.336Z,10.17
2019-04-16T13:24:43.069Z,11.70
2019-04-16T13:27:16.662Z,11.80
2019-04-16T13:29:44.733Z,12.70
2019-04-16T13:32:12.984Z,11.10
2019-04-16T13:34:41.024Z,12.50
2019-04-16T13:37:09.360Z,12.20
2019-04-16T13:39:59.476Z,12.50
2019-04-16T13:42:26.643Z,13.17
2019-04-16T13:45:27.255Z,12.30
2019-04-16T13:47:56.252Z,12.27
2019-04-16T13:50:28.453Z,11.00
2019-04-16T13:53:13.962Z,11.67
2019-04-16T13:56:17.696Z,12.03
2019-04-16T13:58:50.643Z,11.60
2019-04-16T14:01:24.826Z,12.23
2019-04-16T14:03:56.087Z,12.50
2019-04-16T14:06:23.450Z,11.73
2019-04-16T14:08:51.496Z,10.83
2019-04-16T14:11:20.554Z,12.43
2019-04-16T14:13:50.281Z,13.33
2019-04-16T14:16:18.486Z,14.97
2019-04-16T14:18:46.755Z,13.30
2019-04-16T14:21:14.773Z,12.83
2019-04-16T14:23:42.716Z,12.30
2019-04-16T14:26:10.773Z,14.33
2019-04-16T14:28:51.303Z,13.47
2019-04-16T14:31:08.847Z,13.57
2019-04-16T14:34:01.709Z,12.77
2019-04-16T14:36:29.906Z,13.37
2019-04-16T14:39:04.075Z,14.10
2019-04-16T14:41:30.941Z,13.50
2019-04-16T14:44:06.703Z,13.43
2019-04-16T14:46:35.380Z,13.70
2019-04-16T14:49:03.420Z,13.00
2019-04-16T14:51:32.453Z,12.10
2019-04-16T14:54:06.929Z,11.77
2019-04-16T14:56:43.550Z,13.83
2019-04-16T14:59:29.931Z,12.80
2019-04-16T15:02:05.370Z,11.60
2019-04-16T15:04:58.383Z,12.80
2019-04-16T15:07:38.971Z,13.83
2019-04-16T15:10:33.812Z,12.80
2019-04-16T15:13:20.832Z,13.87
2019-04-16T15:16:14.667Z,12.80
2019-04-16T15:19:05.600Z,11.87
2019-04-16T15:21:52.619Z,10.20
2019-04-16T15:24:40.961Z,12.30
2019-04-16T15:27:20.597Z,12.53
2019-04-16T15:30:13.808Z,12.03
2019-04-16T15:32:59.684Z,12.07
2019-04-16T15:35:37.522Z,12.63
2019-04-16T15:38:29.565Z,12.20
2019-04-16T15:41:13.070Z,10.07
2019-04-16T15:43:59.082Z,10.17
2019-04-16T15:46:58.678Z,8.50
2019-04-16T15:49:38.261Z,9.50
2019-04-16T15:52:28.156Z,7.60
2019-04-16T15:55:08.632Z,8.20
2019-04-16T15:58:07.820Z,8.20
2019-04-16T16:00:52.606Z,6.83
2019-04-16T16:03:38.575Z,6.07
2019-04-16T16:06:11.661Z,6.13
2019-04-16T16:08:58.870Z,7.00
2019-04-16T16:11:33.669Z,6.57
2019-04-16T16:14:01.868Z,6.30
2019-04-16T16:16:41.487Z,6.50
2019-04-16T16:18:59.880Z,6.17
2019-04-16T16:21:27.968Z,6.10
2019-04-16T16:23:56.232Z,6.03
2019-04-16T16:26:24.326Z,6.10
2019-04-16T16:28:52.677Z,6.30
2019-04-16T16:31:21.285Z,5.70
2019-04-16T16:33:49.521Z,5.17
2019-04-16T16:36:17.615Z,5.10
2019-04-16T16:38:48.540Z,4.80
2019-04-16T16:41:15.409Z,5.30
2019-04-16T16:43:43.591Z,5.00
2019-04-16T16:46:31.737Z,4.67
2019-04-16T16:48:59.901Z,4.57
2019-04-16T16:51:28.036Z,4.67
2019-04-16T16:54:22.941Z,4.33
2019-04-16T16:57:03.549Z,4.00
2019-04-16T16:59:34.622Z,4.60
2019-04-16T17:02:15.846Z,4.23
2019-04-16T17:04:46.195Z,3.97
2019-04-16T17:07:17.531Z,5.07
2019-04-16T17:09:44.075Z,5.10
2019-04-16T17:12:12.639Z,4.60
2019-04-16T17:14:40.991Z,4.70
2019-04-16T17:17:15.108Z,4.80
2019-04-16T17:19:39.998Z,3.93
2019-04-16T17:22:08.737Z,4.37
2019-04-16T17:24:37.023Z,4.40
2019-04-16T17:27:05.746Z,4.50
2019-04-16T17:29:34.622Z,3.87
2019-04-16T17:32:03.059Z,4.00
2019-04-16T17:34:31.051Z,3.90
2019-04-16T17:36:59.011Z,3.50
2019-04-16T17:42:20.065Z,3.97
2019-04-16T17:45:13.198Z,4.07
2019-04-16T17:48:09.447Z,4.47
2019-04-16T17:50:51.360Z,4.63
2019-04-16T17:53:26.587Z,4.60
2019-04-16T17:56:14.821Z,4.43
2019-04-16T17:58:52.020Z,4.30
2019-04-16T18:01:44.749Z,4.40
2019-04-16T18:04:31.782Z,4.90
2019-04-16T18:07:37.931Z,4.43
2019-04-16T18:10:28.162Z,5.07
2019-04-16T18:13:02.071Z,5.20
2019-04-16T18:15:52.343Z,5.37
2019-04-16T18:18:37.717Z,5.30
2019-04-16T18:21:27.605Z,5.37
2019-04-16T18:24:13.163Z,5.30
2019-04-16T18:27:00.279Z,6.17
2019-04-16T18:29:47.313Z,6.03
2019-04-16T18:32:46.372Z,5.70
2019-04-16T18:35:28.287Z,5.80
2019-04-16T18:41:22.343Z,6.30
2019-04-16T18:44:12.191Z,5.50
2019-04-16T18:46:54.702Z,5.90
2019-04-16T18:49:24.924Z,5.50
2019-04-16T18:51:52.807Z,5.70
2019-04-16T18:54:20.796Z,5.73
2019-04-16T18:56:48.776Z,5.70
2019-04-16T18:59:16.691Z,5.40
2019-04-16T19:01:45.550Z,5.30
2019-04-16T19:04:13.557Z,5.80
2019-04-16T19:06:41.614Z,5.60
2019-04-16T19:09:09.609Z,5.47
2019-04-16T19:11:37.578Z,5.80
2019-04-16T19:14:05.600Z,6.00
2019-04-16T19:16:33.543Z,5.97
2019-04-16T19:19:01.551Z,5.80
2019-04-16T19:21:29.566Z,6.00
2019-04-16T19:23:57.607Z,5.40
2019-04-16T19:26:25.621Z,5.50
2019-04-16T19:28:53.560Z,5.53
2019-04-16T19:31:23.138Z,5.43
2019-04-16T19:33:51.261Z,5.30
2019-04-16T19:36:19.778Z,5.77
2019-04-16T19:38:48.853Z,6.03
2019-04-16T19:41:16.903Z,6.40
2019-04-16T19:43:45.342Z,6.00
2019-04-16T19:46:20.883Z,5.83
2019-04-16T19:48:48.864Z,6.63
2019-04-16T19:51:19.602Z,6.57
2019-04-16T19:53:49.212Z,6.40
2019-04-16T19:56:18.532Z,5.80
2019-04-16T19:58:48.193Z,6.67
2019-04-16T20:01:16.895Z,6.57
2019-04-16T20:03:46.443Z,7.00
2019-04-16T20:06:17.316Z,6.23
2019-04-16T20:08:45.180Z,6.37
2019-04-16T20:11:13.692Z,6.63
2019-04-16T20:13:41.859Z,6.53
2019-04-16T20:16:12.741Z,5.80
2019-04-16T20:18:50.948Z,6.93
2019-04-16T20:21:11.095Z,6.53
2019-04-16T20:23:42.828Z,6.87
2019-04-16T20:26:13.631Z,6.90
2019-04-16T20:31:31.742Z,7.00
2019-04-16T20:34:04.077Z,8.03
2019-04-16T20:39:41.083Z,7.13
2019-04-16T20:42:09.010Z,6.53
2019-04-16T20:44:36.931Z,6.20
2019-04-16T20:47:08.249Z,6.63
2019-04-16T20:53:23.000Z,7.10
2019-04-16T20:55:50.894Z,5.83
2019-04-16T20:58:18.779Z,6.70
2019-04-16T21:00:48.537Z,6.10
2019-04-16T21:03:22.245Z,7.53
2019-04-16T21:05:57.859Z,6.80
2019-04-16T21:14:22.744Z,7.90
2019-04-16T21:16:50.647Z,6.90
2019-04-16T21:19:23.346Z,7.03
2019-04-16T21:22:08.555Z,6.83
2019-04-16T21:24:39.198Z,7.57
2019-04-16T21:30:19.273Z,7.60
2019-04-16T21:33:07.436Z,7.57
2019-04-16T21:35:56.199Z,7.23
2019-04-16T21:38:30.239Z,7.20
2019-04-16T21:41:01.335Z,7.90
2019-04-16T21:43:39.578Z,8.30
2019-04-16T21:46:09.184Z,7.60
2019-04-16T21:48:40.306Z,7.77
2019-04-16T21:51:08.241Z,7.80
2019-04-16T21:53:36.359Z,7.37
2019-04-16T21:56:07.857Z,7.37
2019-04-16T21:58:34.229Z,6.90
2019-04-16T22:01:16.511Z,6.60
2019-04-16T22:03:47.088Z,6.33
2019-04-16T22:06:19.913Z,7.67
2019-04-16T22:08:47.978Z,7.00
2019-04-16T22:11:16.045Z,7.30
2019-04-16T22:13:44.242Z,7.60
2019-04-16T22:16:12.148Z,8.20
2019-04-16T22:18:41.501Z,7.07
2019-04-16T22:21:11.883Z,7.73
2019-04-16T22:23:43.145Z,7.10
2019-04-16T22:26:15.473Z,6.67
2019-04-16T22:28:45.091Z,6.33
2019-04-16T22:31:13.968Z,6.50
2019-04-16T22:33:45.169Z,6.43
2019-04-16T22:36:15.753Z,6.37
2019-04-16T22:38:46.883Z,6.73
2019-04-16T22:41:29.545Z,6.80
2019-04-16T22:44:28.655Z,7.67
2019-04-16T22:47:01.707Z,7.93
2019-04-16T22:49:29.664Z,7.23
2019-04-16T22:51:57.730Z,7.50
2019-04-16T22:54:25.763Z,7.43
2019-04-16T22:57:03.442Z,7.27
2019-04-16T22:59:31.443Z,8.00
2019-04-16T23:01:59.535Z,7.27
2019-04-16T23:04:27.508Z,8.73
2019-04-16T23:06:55.441Z,9.67
2019-04-16T23:09:25.007Z,9.37
2019-04-16T23:11:55.895Z,10.17
2019-04-16T23:14:22.721Z,9.90
2019-04-16T23:16:50.695Z,12.03
2019-04-16T23:19:20.507Z,10.90
2019-04-16T23:21:48.354Z,11.90
2019-04-16T23:24:16.238Z,11.73
2019-04-16T23:26:44.236Z,12.40
2019-04-16T23:29:15.595Z,12.83
2019-04-16T23:31:41.944Z,11.93
2019-04-16T23:34:09.915Z,12.60
2019-04-16T23:36:37.848Z,15.20
2019-04-16T23:39:06.642Z,13.57
2019-04-16T23:41:34.507Z,13.47
2019-04-16T23:44:17.513Z,12.67
2019-04-16T23:47:11.922Z,13.53
2019-04-16T23:50:05.083Z,13.27
2019-04-16T23:52:38.189Z,14.47
2019-04-16T23:55:30.853Z,14.13
2019-04-16T23:58:11.946Z,15.10
